sensor_id;sensor_type;location;lat;lon;timestamp;temperature;humidity
19947;DHT22;10135;50.702;7.276;2024-03-02T06:30:45;10.10;58.10
19947;DHT22;10135;50.702;7.276;2024-03-02T06:32:45;10.10;58.10
19947;DHT22;10135;50.702;7.276;2024-03-02T06:34:46;10.10;58.10
19947;DHT22;10135;50.702;7.276;2024-03-02T06:36:47;10.10;58.20
19947;DHT22;10135;50.702;7.276;2024-03-02T06:38:48;10.10;58.20
19947;DHT22;10135;50.702;7.276;2024-03-02T06:40:49;10.10;58.20
19947;DHT22;10135;50.702;7.276;2024-03-02T06:42:49;10.10;58.20
19947;DHT22;10135;50.702;7.276;2024-03-02T06:44:50;10.10;58.30
19947;DHT22;10135;50.702;7.276;2024-03-02T06:46:51;10.10;58.40
19947;DHT22;10135;50.702;7.276;2024-03-02T06:48:52;10.10;58.40
19947;DHT22;10135;50.702;7.276;2024-03-02T06:50:52;10.10;58.40
19947;DHT22;10135;50.702;7.276;2024-03-02T06:52:53;10.20;58.50
19947;DHT22;10135;50.702;7.276;2024-03-02T06:54:54;10.20;58.50
19947;DHT22;10135;50.702;7.276;2024-03-02T06:56:54;10.20;58.40
19947;DHT22;10135;50.702;7.276;2024-03-02T06:58:55;10.20;58.50
19947;DHT22;10135;50.702;7.276;2024-03-02T07:00:56;10.20;58.50
19947;DHT22;10135;50.702;7.276;2024-03-02T07:02:56;10.20;58.40
19947;DHT22;10135;50.702;7.276;2024-03-02T07:04:57;10.20;58.40
19947;DHT22;10135;50.702;7.276;2024-03-02T07:06:57;10.30;58.50
19947;DHT22;10135;50.702;7.276;2024-03-02T07:08:58;10.30;58.50
19947;DHT22;10135;50.702;7.276;2024-03-02T07:10:59;10.30;58.50
19947;DHT22;10135;50.702;7.276;2024-03-02T07:12:59;10.40;58.60
19947;DHT22;10135;50.702;7.276;2024-03-02T07:15:00;10.40;58.60
19947;DHT22;10135;50.702;7.276;2024-03-02T07:17:04;10.40;58.60
19947;DHT22;10135;50.702;7.276;2024-03-02T07:19:04;10.40;58.60
19947;DHT22;10135;50.702;7.276;2024-03-02T07:21:05;10.50;58.60
19947;DHT22;10135;50.702;7.276;2024-03-02T07:23:06;10.50;58.60
19947;DHT22;10135;50.702;7.276;2024-03-02T07:25:06;10.60;58.70
19947;DHT22;10135;50.702;7.276;2024-03-02T07:27:11;10.70;58.80
19947;DHT22;10135;50.702;7.276;2024-03-02T07:29:13;10.70;58.70
19947;DHT22;10135;50.702;7.276;2024-03-02T07:31:13;10.80;58.90
19947;DHT22;10135;50.702;7.276;2024-03-02T07:33:14;10.90;58.90
19947;DHT22;10135;50.702;7.276;2024-03-02T07:35:17;11.00;58.80
19947;DHT22;10135;50.702;7.276;2024-03-02T07:37:18;11.10;58.80
19947;DHT22;10135;50.702;7.276;2024-03-02T07:39:19;11.20;58.70
19947;DHT22;10135;50.702;7.276;2024-03-02T07:41:20;11.30;58.80
19947;DHT22;10135;50.702;7.276;2024-03-02T07:43:21;11.30;58.80
19947;DHT22;10135;50.702;7.276;2024-03-02T07:45:22;11.50;58.90
19947;DHT22;10135;50.702;7.276;2024-03-02T07:47:22;11.70;58.90
19947;DHT22;10135;50.702;7.276;2024-03-02T07:49:23;11.80;59.00
19947;DHT22;10135;50.702;7.276;2024-03-02T07:51:24;12.10;59.20
19947;DHT22;10135;50.702;7.276;2024-03-02T07:53:28;12.30;59.20
19947;DHT22;10135;50.702;7.276;2024-03-02T07:55:28;12.60;59.10
19947;DHT22;10135;50.702;7.276;2024-03-02T07:57:29;12.90;59.00
19947;DHT22;10135;50.702;7.276;2024-03-02T07:59:29;13.20;58.80
19947;DHT22;10135;50.702;7.276;2024-03-02T08:01:31;13.40;58.70
19947;DHT22;10135;50.702;7.276;2024-03-02T08:03:32;13.60;58.40
19947;DHT22;10135;50.702;7.276;2024-03-02T08:05:34;13.80;58.20
19947;DHT22;10135;50.702;7.276;2024-03-02T08:07:35;14.00;58.10
19947;DHT22;10135;50.702;7.276;2024-03-02T08:09:36;14.10;57.90
19947;DHT22;10135;50.702;7.276;2024-03-02T08:11:36;14.20;57.60
19947;DHT22;10135;50.702;7.276;2024-03-02T08:13:40;14.30;57.40
19947;DHT22;10135;50.702;7.276;2024-03-02T08:15:41;14.30;57.30
19947;DHT22;10135;50.702;7.276;2024-03-02T08:17:41;14.30;57.20
19947;DHT22;10135;50.702;7.276;2024-03-02T08:19:48;14.40;57.30
19947;DHT22;10135;50.702;7.276;2024-03-02T08:21:49;14.50;57.30
19947;DHT22;10135;50.702;7.276;2024-03-02T08:23:50;14.60;57.30
19947;DHT22;10135;50.702;7.276;2024-03-02T08:25:51;14.60;57.30
19947;DHT22;10135;50.702;7.276;2024-03-02T08:27:52;14.70;57.10
19947;DHT22;10135;50.702;7.276;2024-03-02T08:29:53;14.80;57.00
19947;DHT22;10135;50.702;7.276;2024-03-02T08:31:54;14.80;56.80
19947;DHT22;10135;50.702;7.276;2024-03-02T08:33:54;14.90;56.70
19947;DHT22;10135;50.702;7.276;2024-03-02T08:35:57;14.90;56.60
19947;DHT22;10135;50.702;7.276;2024-03-02T08:37:57;14.90;56.60
19947;DHT22;10135;50.702;7.276;2024-03-02T08:39:58;14.90;56.60
19947;DHT22;10135;50.702;7.276;2024-03-02T08:41:59;15.00;56.60
19947;DHT22;10135;50.702;7.276;2024-03-02T08:44:00;15.10;56.60
19947;DHT22;10135;50.702;7.276;2024-03-02T08:46:01;15.10;56.50
19947;DHT22;10135;50.702;7.276;2024-03-02T08:48:02;15.20;56.60
19947;DHT22;10135;50.702;7.276;2024-03-02T08:50:04;15.40;56.70
19947;DHT22;10135;50.702;7.276;2024-03-02T08:52:06;15.50;56.80
19947;DHT22;10135;50.702;7.276;2024-03-02T08:54:07;15.80;57.00
19947;DHT22;10135;50.702;7.276;2024-03-02T08:56:10;16.10;57.00
19947;DHT22;10135;50.702;7.276;2024-03-02T08:58:12;16.40;56.90
19947;DHT22;10135;50.702;7.276;2024-03-02T09:00:13;16.60;56.60
19947;DHT22;10135;50.702;7.276;2024-03-02T09:02:14;16.90;56.40
19947;DHT22;10135;50.702;7.276;2024-03-02T09:04:15;17.10;56.10
19947;DHT22;10135;50.702;7.276;2024-03-02T09:06:16;17.30;55.90
19947;DHT22;10135;50.702;7.276;2024-03-02T09:08:21;17.50;55.80
19947;DHT22;10135;50.702;7.276;2024-03-02T09:10:22;17.70;55.50
19947;DHT22;10135;50.702;7.276;2024-03-02T09:12:22;17.80;55.40
19947;DHT22;10135;50.702;7.276;2024-03-02T09:14:23;18.00;55.30
19947;DHT22;10135;50.702;7.276;2024-03-02T09:16:24;18.20;55.20
19947;DHT22;10135;50.702;7.276;2024-03-02T09:18:31;18.40;55.00
19947;DHT22;10135;50.702;7.276;2024-03-02T09:20:32;18.50;54.60
19947;DHT22;10135;50.702;7.276;2024-03-02T09:22:32;18.70;54.60
19947;DHT22;10135;50.702;7.276;2024-03-02T09:24:33;18.90;54.50
19947;DHT22;10135;50.702;7.276;2024-03-02T09:26:34;19.00;54.30
19947;DHT22;10135;50.702;7.276;2024-03-02T09:28:34;19.10;54.20
19947;DHT22;10135;50.702;7.276;2024-03-02T09:30:35;19.30;54.00
19947;DHT22;10135;50.702;7.276;2024-03-02T09:32:37;19.40;53.80
19947;DHT22;10135;50.702;7.276;2024-03-02T09:34:37;19.40;53.40
19947;DHT22;10135;50.702;7.276;2024-03-02T09:36:38;19.50;53.20
19947;DHT22;10135;50.702;7.276;2024-03-02T09:38:39;19.50;53.00
19947;DHT22;10135;50.702;7.276;2024-03-02T09:40:41;19.40;52.80
19947;DHT22;10135;50.702;7.276;2024-03-02T09:42:43;19.30;52.40
19947;DHT22;10135;50.702;7.276;2024-03-02T09:44:46;19.20;52.00
19947;DHT22;10135;50.702;7.276;2024-03-02T09:46:51;19.10;51.90
19947;DHT22;10135;50.702;7.276;2024-03-02T09:48:52;19.00;51.60
19947;DHT22;10135;50.702;7.276;2024-03-02T09:50:53;18.80;51.90
19947;DHT22;10135;50.702;7.276;2024-03-02T09:52:54;18.70;51.80
19947;DHT22;10135;50.702;7.276;2024-03-02T09:54:54;18.50;51.70
19947;DHT22;10135;50.702;7.276;2024-03-02T09:56:55;18.30;51.70
19947;DHT22;10135;50.702;7.276;2024-03-02T09:58:56;18.10;51.80
19947;DHT22;10135;50.702;7.276;2024-03-02T10:00:56;17.90;51.90
19947;DHT22;10135;50.702;7.276;2024-03-02T10:02:57;17.80;51.90
19947;DHT22;10135;50.702;7.276;2024-03-02T10:04:58;17.70;51.90
19947;DHT22;10135;50.702;7.276;2024-03-02T10:07:18;17.50;51.90
19947;DHT22;10135;50.702;7.276;2024-03-02T10:09:28;17.30;51.50
19947;DHT22;10135;50.702;7.276;2024-03-02T10:11:30;17.10;51.60
19947;DHT22;10135;50.702;7.276;2024-03-02T10:13:33;17.00;52.10
19947;DHT22;10135;50.702;7.276;2024-03-02T10:15:35;16.90;52.20
19947;DHT22;10135;50.702;7.276;2024-03-02T10:17:37;16.70;52.20
19947;DHT22;10135;50.702;7.276;2024-03-02T10:19:39;16.70;52.30
19947;DHT22;10135;50.702;7.276;2024-03-02T10:21:40;16.50;52.40
19947;DHT22;10135;50.702;7.276;2024-03-02T10:23:41;16.50;52.60
19947;DHT22;10135;50.702;7.276;2024-03-02T10:25:43;16.40;52.60
19947;DHT22;10135;50.702;7.276;2024-03-02T10:27:44;16.40;52.70
19947;DHT22;10135;50.702;7.276;2024-03-02T10:29:48;16.40;52.70
19947;DHT22;10135;50.702;7.276;2024-03-02T10:31:49;16.40;52.60
19947;DHT22;10135;50.702;7.276;2024-03-02T10:33:50;16.40;52.70
19947;DHT22;10135;50.702;7.276;2024-03-02T10:35:50;16.30;52.70
19947;DHT22;10135;50.702;7.276;2024-03-02T10:37:53;16.30;52.80
19947;DHT22;10135;50.702;7.276;2024-03-02T10:39:54;16.30;52.70
19947;DHT22;10135;50.702;7.276;2024-03-02T10:41:55;16.20;52.70
19947;DHT22;10135;50.702;7.276;2024-03-02T10:43:58;16.30;52.90
19947;DHT22;10135;50.702;7.276;2024-03-02T10:46:00;16.20;52.90
19947;DHT22;10135;50.702;7.276;2024-03-02T10:48:02;16.30;52.90
19947;DHT22;10135;50.702;7.276;2024-03-02T10:50:04;16.30;52.90
19947;DHT22;10135;50.702;7.276;2024-03-02T10:52:08;16.30;52.90
19947;DHT22;10135;50.702;7.276;2024-03-02T10:54:09;16.30;52.90
19947;DHT22;10135;50.702;7.276;2024-03-02T10:56:15;16.30;52.80
19947;DHT22;10135;50.702;7.276;2024-03-02T10:58:23;16.30;52.60
19947;DHT22;10135;50.702;7.276;2024-03-02T11:00:33;16.30;52.70
19947;DHT22;10135;50.702;7.276;2024-03-02T11:02:36;16.30;52.70
19947;DHT22;10135;50.702;7.276;2024-03-02T11:04:40;16.30;52.70
19947;DHT22;10135;50.702;7.276;2024-03-02T11:06:49;16.30;52.60
19947;DHT22;10135;50.702;7.276;2024-03-02T11:08:52;16.20;52.40
19947;DHT22;10135;50.702;7.276;2024-03-02T11:11:06;16.20;52.50
19947;DHT22;10135;50.702;7.276;2024-03-02T11:13:12;16.20;52.40
19947;DHT22;10135;50.702;7.276;2024-03-02T11:15:17;16.10;52.40
19947;DHT22;10135;50.702;7.276;2024-03-02T11:17:22;16.10;52.50
19947;DHT22;10135;50.702;7.276;2024-03-02T11:19:24;16.10;52.60
19947;DHT22;10135;50.702;7.276;2024-03-02T11:21:26;16.10;52.60
19947;DHT22;10135;50.702;7.276;2024-03-02T11:23:34;16.10;52.60
19947;DHT22;10135;50.702;7.276;2024-03-02T11:25:36;16.00;52.50
19947;DHT22;10135;50.702;7.276;2024-03-02T11:29:46;15.90;52.50
19947;DHT22;10135;50.702;7.276;2024-03-02T11:31:59;15.90;52.70
19947;DHT22;10135;50.702;7.276;2024-03-02T11:34:29;15.80;52.40
19947;DHT22;10135;50.702;7.276;2024-03-02T11:36:31;15.80;52.40
19947;DHT22;10135;50.702;7.276;2024-03-02T11:38:32;15.80;52.70
19947;DHT22;10135;50.702;7.276;2024-03-02T11:40:33;15.80;52.70
19947;DHT22;10135;50.702;7.276;2024-03-02T11:42:34;15.70;52.80
19947;DHT22;10135;50.702;7.276;2024-03-02T11:44:36;15.80;52.90
19947;DHT22;10135;50.702;7.276;2024-03-02T11:46:39;15.70;52.90
19947;DHT22;10135;50.702;7.276;2024-03-02T11:48:40;15.80;52.90
19947;DHT22;10135;50.702;7.276;2024-03-02T11:50:49;15.80;53.00
19947;DHT22;10135;50.702;7.276;2024-03-02T11:52:50;15.80;52.90
19947;DHT22;10135;50.702;7.276;2024-03-02T11:54:51;15.80;53.00
19947;DHT22;10135;50.702;7.276;2024-03-02T11:56:54;15.80;53.00
19947;DHT22;10135;50.702;7.276;2024-03-02T11:58:55;15.90;53.00
19947;DHT22;10135;50.702;7.276;2024-03-02T12:00:56;16.00;53.00
19947;DHT22;10135;50.702;7.276;2024-03-02T12:03:07;16.00;53.00
19947;DHT22;10135;50.702;7.276;2024-03-02T12:05:09;16.00;52.80
19947;DHT22;10135;50.702;7.276;2024-03-02T12:07:10;16.00;52.80
19947;DHT22;10135;50.702;7.276;2024-03-02T12:09:12;15.90;52.80
19947;DHT22;10135;50.702;7.276;2024-03-02T12:11:15;15.90;53.40
19947;DHT22;10135;50.702;7.276;2024-03-02T12:13:16;15.90;52.80
19947;DHT22;10135;50.702;7.276;2024-03-02T12:15:16;15.90;52.80
19947;DHT22;10135;50.702;7.276;2024-03-02T12:17:17;15.90;52.80
19947;DHT22;10135;50.702;7.276;2024-03-02T12:19:17;15.90;52.80
19947;DHT22;10135;50.702;7.276;2024-03-02T12:21:20;15.90;52.80
19947;DHT22;10135;50.702;7.276;2024-03-02T12:23:21;15.90;53.10
19947;DHT22;10135;50.702;7.276;2024-03-02T12:25:23;15.90;52.90
19947;DHT22;10135;50.702;7.276;2024-03-02T12:27:25;16.00;53.00
19947;DHT22;10135;50.702;7.276;2024-03-02T12:29:26;16.00;53.00
19947;DHT22;10135;50.702;7.276;2024-03-02T12:31:27;16.00;52.90
19947;DHT22;10135;50.702;7.276;2024-03-02T12:33:28;16.10;52.90
19947;DHT22;10135;50.702;7.276;2024-03-02T12:35:30;16.00;52.80
19947;DHT22;10135;50.702;7.276;2024-03-02T12:37:32;16.00;52.80
19947;DHT22;10135;50.702;7.276;2024-03-02T12:39:33;16.00;52.80
19947;DHT22;10135;50.702;7.276;2024-03-02T12:41:33;16.00;52.80
19947;DHT22;10135;50.702;7.276;2024-03-02T12:43:34;16.00;52.80
19947;DHT22;10135;50.702;7.276;2024-03-02T12:45:35;16.00;52.90
19947;DHT22;10135;50.702;7.276;2024-03-02T12:47:36;16.10;52.90
19947;DHT22;10135;50.702;7.276;2024-03-02T12:49:40;16.10;52.90
19947;DHT22;10135;50.702;7.276;2024-03-02T12:51:41;16.20;52.90
19947;DHT22;10135;50.702;7.276;2024-03-02T12:53:42;16.20;52.90
19947;DHT22;10135;50.702;7.276;2024-03-02T12:55:43;16.30;53.00
19947;DHT22;10135;50.702;7.276;2024-03-02T12:57:45;16.40;53.00
19947;DHT22;10135;50.702;7.276;2024-03-02T12:59:46;16.40;52.90
19947;DHT22;10135;50.702;7.276;2024-03-02T13:01:54;16.50;52.80
19947;DHT22;10135;50.702;7.276;2024-03-02T13:03:58;16.50;52.60
19947;DHT22;10135;50.702;7.276;2024-03-02T13:05:59;16.50;52.70
19947;DHT22;10135;50.702;7.276;2024-03-02T13:08:00;16.60;52.60
19947;DHT22;10135;50.702;7.276;2024-03-02T13:10:04;16.60;52.50
19947;DHT22;10135;50.702;7.276;2024-03-02T13:12:06;16.60;52.50
19947;DHT22;10135;50.702;7.276;2024-03-02T13:14:07;16.60;52.50
19947;DHT22;10135;50.702;7.276;2024-03-02T13:16:12;16.60;52.40
19947;DHT22;10135;50.702;7.276;2024-03-02T13:18:19;16.60;52.30
19947;DHT22;10135;50.702;7.276;2024-03-02T13:20:20;16.60;52.20
19947;DHT22;10135;50.702;7.276;2024-03-02T13:22:21;16.60;52.20
19947;DHT22;10135;50.702;7.276;2024-03-02T13:24:22;16.70;52.20
19947;DHT22;10135;50.702;7.276;2024-03-02T13:26:26;16.70;52.20
19947;DHT22;10135;50.702;7.276;2024-03-02T13:28:26;16.60;52.20
19947;DHT22;10135;50.702;7.276;2024-03-02T13:30:27;16.60;52.30
19947;DHT22;10135;50.702;7.276;2024-03-02T13:32:28;16.60;52.30
19947;DHT22;10135;50.702;7.276;2024-03-02T13:34:29;16.70;52.30
19947;DHT22;10135;50.702;7.276;2024-03-02T13:36:29;16.60;52.80
19947;DHT22;10135;50.702;7.276;2024-03-02T13:38:30;16.70;52.20
19947;DHT22;10135;50.702;7.276;2024-03-02T13:40:31;16.60;52.80
19947;DHT22;10135;50.702;7.276;2024-03-02T13:42:35;16.70;52.20
19947;DHT22;10135;50.702;7.276;2024-03-02T13:44:36;16.70;52.10
19947;DHT22;10135;50.702;7.276;2024-03-02T13:46:37;16.70;52.10
19947;DHT22;10135;50.702;7.276;2024-03-02T13:48:38;16.70;52.00
19947;DHT22;10135;50.702;7.276;2024-03-02T13:50:39;16.70;52.00
19947;DHT22;10135;50.702;7.276;2024-03-02T13:52:39;16.70;52.00
19947;DHT22;10135;50.702;7.276;2024-03-02T13:54:41;16.70;52.00
19947;DHT22;10135;50.702;7.276;2024-03-02T13:56:42;16.80;52.00
19947;DHT22;10135;50.702;7.276;2024-03-02T13:58:43;16.70;51.90
19947;DHT22;10135;50.702;7.276;2024-03-02T14:00:44;16.80;51.90
19947;DHT22;10135;50.702;7.276;2024-03-02T14:02:45;16.80;51.90
19947;DHT22;10135;50.702;7.276;2024-03-02T14:04:48;16.70;51.80
19947;DHT22;10135;50.702;7.276;2024-03-02T14:06:50;16.70;51.70
19947;DHT22;10135;50.702;7.276;2024-03-02T14:08:50;16.80;51.80
19947;DHT22;10135;50.702;7.276;2024-03-02T14:10:51;16.80;51.80
19947;DHT22;10135;50.702;7.276;2024-03-02T14:12:52;16.80;51.80
19947;DHT22;10135;50.702;7.276;2024-03-02T14:14:52;16.80;51.70
19947;DHT22;10135;50.702;7.276;2024-03-02T14:16:55;16.80;51.70
19947;DHT22;10135;50.702;7.276;2024-03-02T14:18:56;16.90;51.70
19947;DHT22;10135;50.702;7.276;2024-03-02T14:20:57;16.80;51.60
19947;DHT22;10135;50.702;7.276;2024-03-02T14:22:58;16.90;51.60
19947;DHT22;10135;50.702;7.276;2024-03-02T14:25:00;16.90;51.60
19947;DHT22;10135;50.702;7.276;2024-03-02T14:27:00;16.90;51.50
19947;DHT22;10135;50.702;7.276;2024-03-02T14:29:04;16.90;51.50
19947;DHT22;10135;50.702;7.276;2024-03-02T14:31:05;16.90;51.40
19947;DHT22;10135;50.702;7.276;2024-03-02T14:33:06;16.80;51.30
19947;DHT22;10135;50.702;7.276;2024-03-02T14:35:07;16.80;51.30
19947;DHT22;10135;50.702;7.276;2024-03-02T14:37:10;16.80;51.30
19947;DHT22;10135;50.702;7.276;2024-03-02T14:39:11;16.80;51.20
19947;DHT22;10135;50.702;7.276;2024-03-02T14:41:12;16.80;51.20
19947;DHT22;10135;50.702;7.276;2024-03-02T14:43:13;16.80;51.20
19947;DHT22;10135;50.702;7.276;2024-03-02T14:45:14;16.80;51.20
19947;DHT22;10135;50.702;7.276;2024-03-02T14:47:15;16.80;51.20
19947;DHT22;10135;50.702;7.276;2024-03-02T14:49:15;16.70;51.20
19947;DHT22;10135;50.702;7.276;2024-03-02T14:51:16;16.70;51.10
19947;DHT22;10135;50.702;7.276;2024-03-02T14:53:17;16.70;51.10
19947;DHT22;10135;50.702;7.276;2024-03-02T14:55:18;16.70;51.10
19947;DHT22;10135;50.702;7.276;2024-03-02T14:57:19;16.70;51.10
19947;DHT22;10135;50.702;7.276;2024-03-02T14:59:19;16.70;51.10
19947;DHT22;10135;50.702;7.276;2024-03-02T15:01:20;16.70;51.10
19947;DHT22;10135;50.702;7.276;2024-03-02T15:03:23;16.60;51.10
19947;DHT22;10135;50.702;7.276;2024-03-02T15:05:23;16.60;51.00
19947;DHT22;10135;50.702;7.276;2024-03-02T15:07:27;16.60;51.00
19947;DHT22;10135;50.702;7.276;2024-03-02T15:09:27;16.60;51.00
19947;DHT22;10135;50.702;7.276;2024-03-02T15:11:28;16.60;51.00
19947;DHT22;10135;50.702;7.276;2024-03-02T15:13:29;16.60;50.90
19947;DHT22;10135;50.702;7.276;2024-03-02T15:15:30;16.60;50.90
19947;DHT22;10135;50.702;7.276;2024-03-02T15:17:30;16.60;50.90
19947;DHT22;10135;50.702;7.276;2024-03-02T15:19:31;16.60;50.90
19947;DHT22;10135;50.702;7.276;2024-03-02T15:21:32;16.60;50.90
19947;DHT22;10135;50.702;7.276;2024-03-02T15:23:33;16.50;50.90
19947;DHT22;10135;50.702;7.276;2024-03-02T15:25:34;16.50;51.50
19947;DHT22;10135;50.702;7.276;2024-03-02T15:27:35;16.50;51.50
19947;DHT22;10135;50.702;7.276;2024-03-02T15:29:36;16.60;50.90
19947;DHT22;10135;50.702;7.276;2024-03-02T15:31:36;16.50;50.90
19947;DHT22;10135;50.702;7.276;2024-03-02T15:33:37;16.50;50.90
19947;DHT22;10135;50.702;7.276;2024-03-02T15:35:38;16.60;50.90
19947;DHT22;10135;50.702;7.276;2024-03-02T15:37:38;16.60;50.90
19947;DHT22;10135;50.702;7.276;2024-03-02T15:39:39;16.60;50.90
19947;DHT22;10135;50.702;7.276;2024-03-02T15:41:40;16.50;50.80
19947;DHT22;10135;50.702;7.276;2024-03-02T15:43:43;16.60;50.80
19947;DHT22;10135;50.702;7.276;2024-03-02T15:45:43;16.50;50.80
19947;DHT22;10135;50.702;7.276;2024-03-02T15:47:44;16.50;50.80
19947;DHT22;10135;50.702;7.276;2024-03-02T15:49:45;16.50;50.70
19947;DHT22;10135;50.702;7.276;2024-03-02T15:51:45;16.50;50.80
19947;DHT22;10135;50.702;7.276;2024-03-02T15:53:46;16.50;50.80
19947;DHT22;10135;50.702;7.276;2024-03-02T15:55:46;16.50;50.80
19947;DHT22;10135;50.702;7.276;2024-03-02T15:57:47;16.50;50.70
19947;DHT22;10135;50.702;7.276;2024-03-02T15:59:48;16.50;50.70
19947;DHT22;10135;50.702;7.276;2024-03-02T16:01:50;16.40;50.60
19947;DHT22;10135;50.702;7.276;2024-03-02T16:03:50;16.40;50.60
19947;DHT22;10135;50.702;7.276;2024-03-02T16:05:51;16.40;50.60
19947;DHT22;10135;50.702;7.276;2024-03-02T16:07:51;16.40;50.60
19947;DHT22;10135;50.702;7.276;2024-03-02T16:09:52;16.40;50.60
19947;DHT22;10135;50.702;7.276;2024-03-02T16:11:53;16.40;50.60
19947;DHT22;10135;50.702;7.276;2024-03-02T16:13:53;16.30;50.60
19947;DHT22;10135;50.702;7.276;2024-03-02T16:15:54;16.30;50.60
19947;DHT22;10135;50.702;7.276;2024-03-02T16:17:54;16.30;50.60
19947;DHT22;10135;50.702;7.276;2024-03-02T16:19:55;16.30;50.50
19947;DHT22;10135;50.702;7.276;2024-03-02T16:21:58;16.30;50.60
19947;DHT22;10135;50.702;7.276;2024-03-02T16:23:59;16.30;50.50
19947;DHT22;10135;50.702;7.276;2024-03-02T16:26:00;16.30;50.60
19947;DHT22;10135;50.702;7.276;2024-03-02T16:28:01;16.20;50.50
19947;DHT22;10135;50.702;7.276;2024-03-02T16:30:03;16.20;50.50
19947;DHT22;10135;50.702;7.276;2024-03-02T16:32:05;16.20;50.50
19947;DHT22;10135;50.702;7.276;2024-03-02T16:34:06;16.20;50.50
19947;DHT22;10135;50.702;7.276;2024-03-02T16:36:07;16.20;50.50
19947;DHT22;10135;50.702;7.276;2024-03-02T16:38:08;16.20;50.60
19947;DHT22;10135;50.702;7.276;2024-03-02T16:40:11;16.20;50.50
19947;DHT22;10135;50.702;7.276;2024-03-02T16:42:13;16.20;50.50
19947;DHT22;10135;50.702;7.276;2024-03-02T16:44:15;16.20;50.50
19947;DHT22;10135;50.702;7.276;2024-03-02T16:46:16;16.20;50.50
19947;DHT22;10135;50.702;7.276;2024-03-02T16:48:16;16.20;50.50
19947;DHT22;10135;50.702;7.276;2024-03-02T16:50:18;16.10;50.50
19947;DHT22;10135;50.702;7.276;2024-03-02T16:52:18;16.20;50.50
19947;DHT22;10135;50.702;7.276;2024-03-02T16:54:19;16.10;50.50
19947;DHT22;10135;50.702;7.276;2024-03-02T16:56:19;16.10;50.40
19947;DHT22;10135;50.702;7.276;2024-03-02T16:58:20;16.10;50.40
19947;DHT22;10135;50.702;7.276;2024-03-02T17:00:21;16.10;50.40
19947;DHT22;10135;50.702;7.276;2024-03-02T17:02:22;16.10;50.40
19947;DHT22;10135;50.702;7.276;2024-03-02T17:04:25;16.00;50.40
19947;DHT22;10135;50.702;7.276;2024-03-02T17:06:26;16.00;50.40
19947;DHT22;10135;50.702;7.276;2024-03-02T17:08:27;16.00;50.40
19947;DHT22;10135;50.702;7.276;2024-03-02T17:10:28;16.00;50.40
19947;DHT22;10135;50.702;7.276;2024-03-02T17:12:28;15.90;50.40
19947;DHT22;10135;50.702;7.276;2024-03-02T17:14:29;15.90;50.30
19947;DHT22;10135;50.702;7.276;2024-03-02T17:16:30;15.90;50.40
19947;DHT22;10135;50.702;7.276;2024-03-02T17:18:30;15.90;50.40
19947;DHT22;10135;50.702;7.276;2024-03-02T17:20:31;15.90;50.40
19947;DHT22;10135;50.702;7.276;2024-03-02T17:22:31;15.90;50.40
19947;DHT22;10135;50.702;7.276;2024-03-02T17:24:32;15.80;50.40
19947;DHT22;10135;50.702;7.276;2024-03-02T17:26:33;15.90;50.40
19947;DHT22;10135;50.702;7.276;2024-03-02T17:28:33;15.90;50.40
19947;DHT22;10135;50.702;7.276;2024-03-02T17:30:34;15.80;50.30
19947;DHT22;10135;50.702;7.276;2024-03-02T17:32:35;15.80;50.40
19947;DHT22;10135;50.702;7.276;2024-03-02T17:34:35;15.80;50.40
19947;DHT22;10135;50.702;7.276;2024-03-02T17:36:36;15.80;50.40
19947;DHT22;10135;50.702;7.276;2024-03-02T17:38:37;15.80;50.40
19947;DHT22;10135;50.702;7.276;2024-03-02T17:40:37;15.80;50.40
19947;DHT22;10135;50.702;7.276;2024-03-02T17:42:38;15.80;50.40
19947;DHT22;10135;50.702;7.276;2024-03-02T17:44:38;15.70;50.40
19947;DHT22;10135;50.702;7.276;2024-03-02T17:46:39;15.80;50.50
19947;DHT22;10135;50.702;7.276;2024-03-02T17:48:40;15.80;50.40
19947;DHT22;10135;50.702;7.276;2024-03-02T17:50:41;15.70;50.40
19947;DHT22;10135;50.702;7.276;2024-03-02T17:52:41;15.70;50.40
19947;DHT22;10135;50.702;7.276;2024-03-02T17:54:42;15.70;50.40
19947;DHT22;10135;50.702;7.276;2024-03-02T17:56:43;15.70;50.50
19947;DHT22;10135;50.702;7.276;2024-03-02T17:58:43;15.70;50.40
19947;DHT22;10135;50.702;7.276;2024-03-02T18:00:44;15.70;50.50
19947;DHT22;10135;50.702;7.276;2024-03-02T18:02:47;15.70;50.50
19947;DHT22;10135;50.702;7.276;2024-03-02T18:04:47;15.60;50.40
19947;DHT22;10135;50.702;7.276;2024-03-02T18:06:48;15.60;50.40
19947;DHT22;10135;50.702;7.276;2024-03-02T18:08:48;15.70;50.50
19947;DHT22;10135;50.702;7.276;2024-03-02T18:10:49;15.60;50.40
19947;DHT22;10135;50.702;7.276;2024-03-02T18:12:50;15.60;50.50
19947;DHT22;10135;50.702;7.276;2024-03-02T18:14:50;15.60;50.50
19947;DHT22;10135;50.702;7.276;2024-03-02T18:16:51;15.60;50.50
19947;DHT22;10135;50.702;7.276;2024-03-02T18:18:52;15.60;50.60
19947;DHT22;10135;50.702;7.276;2024-03-02T18:20:52;15.60;50.60
19947;DHT22;10135;50.702;7.276;2024-03-02T18:22:53;15.60;50.60
19947;DHT22;10135;50.702;7.276;2024-03-02T18:24:56;15.60;50.60
19947;DHT22;10135;50.702;7.276;2024-03-02T18:26:57;15.60;50.60
19947;DHT22;10135;50.702;7.276;2024-03-02T18:29:00;15.60;50.60
19947;DHT22;10135;50.702;7.276;2024-03-02T18:31:01;15.60;50.70
19947;DHT22;10135;50.702;7.276;2024-03-02T18:33:01;15.50;50.60
19947;DHT22;10135;50.702;7.276;2024-03-02T18:35:05;15.50;50.60
19947;DHT22;10135;50.702;7.276;2024-03-02T18:37:06;15.60;50.70
19947;DHT22;10135;50.702;7.276;2024-03-02T18:39:07;15.50;50.60
19947;DHT22;10135;50.702;7.276;2024-03-02T18:41:08;15.50;50.70
19947;DHT22;10135;50.702;7.276;2024-03-02T18:43:09;15.50;50.70
19947;DHT22;10135;50.702;7.276;2024-03-02T18:45:10;15.50;50.80
19947;DHT22;10135;50.702;7.276;2024-03-02T18:47:10;15.50;50.80
19947;DHT22;10135;50.702;7.276;2024-03-02T18:49:11;15.50;50.80
19947;DHT22;10135;50.702;7.276;2024-03-02T18:51:12;15.50;50.80
19947;DHT22;10135;50.702;7.276;2024-03-02T18:53:13;15.50;50.80
19947;DHT22;10135;50.702;7.276;2024-03-02T18:55:13;15.40;50.80
19947;DHT22;10135;50.702;7.276;2024-03-02T18:57:14;15.50;50.90
19947;DHT22;10135;50.702;7.276;2024-03-02T18:59:15;15.40;50.80
19947;DHT22;10135;50.702;7.276;2024-03-02T19:01:16;15.40;50.80
19947;DHT22;10135;50.702;7.276;2024-03-02T19:03:16;15.40;50.80
19947;DHT22;10135;50.702;7.276;2024-03-02T19:05:17;15.40;50.80
19947;DHT22;10135;50.702;7.276;2024-03-02T19:07:18;15.40;50.90
19947;DHT22;10135;50.702;7.276;2024-03-02T19:09:18;15.30;50.80
19947;DHT22;10135;50.702;7.276;2024-03-02T19:11:20;15.30;50.80
19947;DHT22;10135;50.702;7.276;2024-03-02T19:13:20;15.30;50.90
19947;DHT22;10135;50.702;7.276;2024-03-02T19:15:21;15.30;50.90
19947;DHT22;10135;50.702;7.276;2024-03-02T19:17:22;15.30;50.90
19947;DHT22;10135;50.702;7.276;2024-03-02T19:19:22;15.20;50.90